Time;durP1;ratioP1;P1;durP2;ratioP2;P2;SDS_P1;SDS_P2;PMS_P1;PMS_P2;Temp;Humidity;BMP_temperature;BMP_pressure;BME280_temperature;BME280_humidity;BME280_pressure;Samples;Min_cycle;Max_cycle;Signal;HPM_P1;HPM_P2
2021/05/15 00:01:04;;;;;;;9.63;5.13;;;13.80;70.60;;;;;;5072923;28;20658;-59
2021/05/15 00:03:30;;;;;;;11.63;5.00;;;13.70;70.50;;;;;;5072362;28;20032;-59
2021/05/15 00:05:56;;;;;;;9.80;5.78;;;13.70;70.50;;;;;;5072756;28;20040;-59
2021/05/15 00:08:22;;;;;;;13.05;5.75;;;13.80;70.60;;;;;;5072876;28;20067;-59
2021/05/15 00:10:51;;;;;;;11.30;5.25;;;13.70;70.60;;;;;;5072184;28;20093;-59
2021/05/15 00:13:17;;;;;;;11.65;5.85;;;13.80;70.60;;;;;;5072958;28;20028;-59
2021/05/15 00:15:43;;;;;;;12.73;6.63;;;13.70;70.60;;;;;;5072295;28;20025;-59
2021/05/15 00:18:08;;;;;;;11.57;5.63;;;13.80;70.60;;;;;;5072547;28;20430;-59
2021/05/15 00:20:34;;;;;;;9.65;5.38;;;13.80;70.60;;;;;;5072839;28;20035;-59
2021/05/15 00:23:00;;;;;;;12.38;5.10;;;13.80;71.30;;;;;;5071982;28;20040;-59
2021/05/15 00:25:26;;;;;;;9.32;5.60;;;13.80;70.60;;;;;;5071138;28;20054;-59
2021/05/15 00:27:51;;;;;;;13.93;6.20;;;13.80;70.50;;;;;;5071807;28;20041;-59
2021/05/15 00:30:17;;;;;;;17.92;6.60;;;13.80;70.60;;;;;;5072190;28;20055;-59
2021/05/15 00:32:44;;;;;;;13.75;6.78;;;13.80;70.90;;;;;;5072305;28;20103;-59
2021/05/15 00:35:13;;;;;;;17.38;6.60;;;13.80;70.60;;;;;;5072745;28;20028;-59
2021/05/15 00:37:39;;;;;;;12.45;5.88;;;13.80;70.60;;;;;;5071853;28;20041;-59
2021/05/15 00:40:07;;;;;;;11.23;4.88;;;13.80;70.60;;;;;;5072362;28;20150;-59
2021/05/15 00:42:36;;;;;;;11.52;5.43;;;13.80;70.50;;;;;;5072688;28;20036;-59
2021/05/15 00:45:06;;;;;;;12.02;5.68;;;13.80;70.50;;;;;;5071949;28;20646;-59
2021/05/15 00:47:32;;;;;;;11.90;6.68;;;13.80;70.50;;;;;;5072453;28;20040;-59
2021/05/15 00:49:58;;;;;;;9.10;5.32;;;13.80;70.40;;;;;;5071009;28;20074;-58
2021/05/15 00:52:27;;;;;;;11.88;6.10;;;13.80;70.40;;;;;;5072253;28;20028;-59
2021/05/15 00:54:54;;;;;;;13.98;5.78;;;13.80;70.40;;;;;;5072333;28;20031;-59
2021/05/15 00:57:21;;;;;;;11.90;6.43;;;13.80;70.40;;;;;;5072116;28;20086;-59
2021/05/15 00:59:46;;;;;;;12.07;5.47;;;13.80;70.40;;;;;;5071769;28;20391;-58
2021/05/15 01:02:13;;;;;;;12.77;6.18;;;13.80;70.40;;;;;;5072177;28;20028;-58
2021/05/15 01:04:39;;;;;;;12.07;5.60;;;13.80;70.40;;;;;;5072327;28;20471;-59
2021/05/15 01:07:10;;;;;;;12.02;5.35;;;13.70;70.40;;;;;;5071595;28;20036;-59
2021/05/15 01:09:37;;;;;;;11.27;4.70;;;13.80;70.40;;;;;;5072298;28;20539;-59
2021/05/15 01:12:04;;;;;;;12.60;4.88;;;13.70;70.40;;;;;;5071882;28;20028;-59
2021/05/15 01:14:32;;;;;;;10.40;5.30;;;13.80;70.40;;;;;;5071956;28;20028;-59
2021/05/15 01:16:57;;;;;;;8.77;4.85;;;13.80;70.40;;;;;;5070748;28;20480;-59
2021/05/15 01:19:23;;;;;;;8.10;4.40;;;13.70;70.40;;;;;;5071719;28;20046;-59
2021/05/15 01:21:49;;;;;;;10.65;5.20;;;13.70;70.50;;;;;;5072229;28;20511;-58
2021/05/15 01:24:15;;;;;;;13.98;5.45;;;13.70;70.50;;;;;;5072120;28;20032;-59
2021/05/15 01:26:40;;;;;;;11.93;5.07;;;13.70;70.50;;;;;;5071798;28;20158;-59
2021/05/15 01:29:07;;;;;;;10.52;6.13;;;13.70;70.60;;;;;;5071948;28;20380;-59
2021/05/15 01:31:35;;;;;;;13.40;7.03;;;13.70;70.60;;;;;;5071866;28;20029;-59
2021/05/15 01:34:02;;;;;;;10.82;6.22;;;13.70;70.80;;;;;;5071814;28;20375;-59
2021/05/15 01:36:28;;;;;;;14.48;6.78;;;13.70;70.90;;;;;;5071721;28;20147;-59
2021/05/15 01:38:55;;;;;;;13.30;7.22;;;13.70;70.80;;;;;;5072760;28;20127;-59
2021/05/15 01:41:21;;;;;;;17.50;7.22;;;13.70;70.80;;;;;;5075072;28;20028;-59
2021/05/15 01:43:47;;;;;;;13.95;7.70;;;13.70;70.70;;;;;;5075482;28;20029;-59
2021/05/15 01:46:14;;;;;;;14.15;7.78;;;13.70;70.70;;;;;;5075311;28;20036;-59
2021/05/15 01:48:41;;;;;;;13.13;7.25;;;13.70;70.60;;;;;;5074989;28;20025;-59
2021/05/15 01:51:12;;;;;;;19.08;8.40;;;13.80;70.50;;;;;;5075653;28;20051;-59
2021/05/15 01:53:43;;;;;;;13.10;7.63;;;13.80;70.40;;;;;;5066304;28;20035;-59
2021/05/15 01:56:11;;;;;;;14.85;7.18;;;13.80;70.30;;;;;;5074510;28;20028;-59
2021/05/15 01:58:38;;;;;;;18.05;7.38;;;13.80;70.10;;;;;;5074756;28;20048;-59
2021/05/15 02:01:04;;;;;;;18.42;6.93;;;13.80;70.00;;;;;;5075418;28;20095;-59
2021/05/15 02:03:31;;;;;;;13.93;6.93;;;13.80;70.00;;;;;;5074956;28;20024;-59
2021/05/15 02:05:57;;;;;;;13.10;6.68;;;13.80;70.00;;;;;;5075240;28;20024;-59
2021/05/15 02:08:23;;;;;;;13.13;6.70;;;13.80;70.10;;;;;;5074900;28;20107;-59
2021/05/15 02:10:50;;;;;;;13.32;6.90;;;13.70;70.20;;;;;;5074675;28;20112;-58
2021/05/15 02:13:18;;;;;;;14.30;7.78;;;13.70;70.30;;;;;;5075104;28;20035;-58
2021/05/15 02:15:45;;;;;;;13.70;7.53;;;13.70;70.40;;;;;;5074905;28;20052;-59
2021/05/15 02:18:12;;;;;;;10.73;6.28;;;13.70;70.40;;;;;;5074763;28;20043;-59
2021/05/15 02:20:39;;;;;;;10.90;6.72;;;13.70;70.40;;;;;;5075022;28;20055;-59
2021/05/15 02:23:05;;;;;;;13.55;7.10;;;13.70;70.50;;;;;;5074123;28;20434;-58
2021/05/15 02:25:30;;;;;;;15.65;7.45;;;13.70;70.50;;;;;;5074736;28;20036;-59
2021/05/15 02:27:56;;;;;;;13.25;7.72;;;13.70;70.50;;;;;;5074417;28;20028;-59
2021/05/15 02:30:25;;;;;;;14.95;7.40;;;13.70;70.50;;;;;;5074620;28;20038;-59
2021/05/15 02:32:51;;;;;;;13.18;7.57;;;13.70;70.50;;;;;;5074745;28;20043;-59
2021/05/15 02:35:17;;;;;;;14.68;7.40;;;13.70;70.50;;;;;;5074520;28;20021;-59
2021/05/15 02:37:44;;;;;;;12.35;7.35;;;13.70;70.50;;;;;;5074097;28;20043;-59
2021/05/15 02:40:11;;;;;;;19.50;8.02;;;13.70;70.50;;;;;;5074541;28;20032;-59
2021/05/15 02:42:37;;;;;;;13.85;7.38;;;13.70;70.40;;;;;;5074532;28;20029;-59
2021/05/15 02:45:08;;;;;;;13.90;7.20;;;13.70;70.40;;;;;;5073849;28;20027;-59
2021/05/15 02:47:33;;;;;;;12.27;6.93;;;13.70;70.50;;;;;;5074663;28;20066;-59
2021/05/15 02:49:59;;;;;;;16.67;7.00;;;13.70;70.50;;;;;;5073749;28;20036;-59
2021/05/15 02:52:25;;;;;;;15.30;7.55;;;13.70;70.50;;;;;;5073350;28;20044;-59
2021/05/15 02:54:51;;;;;;;15.40;7.88;;;13.70;70.60;;;;;;5074554;28;20031;-59
2021/05/15 02:57:16;;;;;;;15.23;7.40;;;13.70;70.50;;;;;;5074244;28;20532;-59
2021/05/15 02:59:42;;;;;;;14.32;8.85;;;13.70;70.60;;;;;;5073500;28;20067;-59
2021/05/15 03:02:08;;;;;;;16.88;8.30;;;13.70;70.70;;;;;;5073757;28;20365;-58
2021/05/15 03:04:34;;;;;;;13.55;7.95;;;13.70;70.80;;;;;;5073557;28;20082;-59
2021/05/15 03:07:00;;;;;;;15.25;8.82;;;13.70;70.80;;;;;;5074071;28;20029;-59
2021/05/15 03:09:25;;;;;;;16.50;8.18;;;13.70;70.90;;;;;;5073814;28;20393;-58
2021/05/15 03:11:51;;;;;;;13.70;7.85;;;13.60;70.90;;;;;;5073796;28;20028;-59
2021/05/15 03:14:17;;;;;;;14.80;7.57;;;13.70;71.00;;;;;;5073529;28;20505;-58
2021/05/15 03:16:43;;;;;;;20.98;8.65;;;13.60;71.00;;;;;;5074005;28;20065;-59
2021/05/15 03:19:08;;;;;;;13.90;8.10;;;13.60;70.90;;;;;;5073201;28;20049;-58
2021/05/15 03:21:34;;;;;;;18.65;8.38;;;13.60;70.90;;;;;;5073665;28;20036;-59
2021/05/15 03:24:00;;;;;;;12.68;7.50;;;13.60;70.90;;;;;;5073702;28;20084;-58
2021/05/15 03:26:26;;;;;;;18.33;7.68;;;13.60;70.80;;;;;;5072983;28;20487;-59
2021/05/15 03:28:51;;;;;;;11.55;7.43;;;13.60;70.80;;;;;;5073664;28;20060;-59
2021/05/15 03:31:17;;;;;;;13.93;7.25;;;13.60;70.70;;;;;;5073400;28;20036;-58
2021/05/15 03:33:43;;;;;;;17.35;7.90;;;13.60;70.70;;;;;;5073189;28;20123;-59
2021/05/15 03:36:09;;;;;;;16.20;8.20;;;13.60;70.60;;;;;;5073200;28;20029;-59
2021/05/15 03:38:35;;;;;;;15.73;7.85;;;13.50;70.60;;;;;;5073340;28;20051;-59
2021/05/15 03:41:00;;;;;;;15.52;7.60;;;13.50;70.60;;;;;;5073053;28;20033;-59
2021/05/15 03:43:26;;;;;;;15.23;8.30;;;13.50;70.50;;;;;;5073107;28;20033;-59
2021/05/15 03:45:56;;;;;;;16.85;6.72;;;13.50;70.50;;;;;;5073413;28;20055;-59
2021/05/15 03:48:22;;;;;;;14.45;7.85;;;13.50;70.50;;;;;;5072491;28;20032;-58
2021/05/15 03:50:49;;;;;;;19.95;8.43;;;13.50;70.50;;;;;;5073177;28;20037;-58
2021/05/15 03:53:15;;;;;;;11.50;6.55;;;13.50;70.50;;;;;;5072967;28;20037;-59
2021/05/15 03:55:41;;;;;;;14.70;6.90;;;13.40;70.50;;;;;;5071406;28;20445;-59
2021/05/15 03:58:07;;;;;;;12.15;7.13;;;13.40;70.60;;;;;;5072856;28;20102;-58
2021/05/15 04:00:33;;;;;;;13.00;7.30;;;13.30;70.70;;;;;;5059182;28;20024;-59
2021/05/15 04:02:59;;;;;;;13.50;6.82;;;13.30;70.80;;;;;;5072271;28;20029;-59
2021/05/15 04:05:24;;;;;;;12.75;8.05;;;13.30;71.00;;;;;;5072993;28;20028;-59
2021/05/15 04:07:53;;;;;;;17.08;7.00;;;13.30;71.00;;;;;;5072466;28;20037;-58
2021/05/15 04:10:19;;;;;;;10.20;6.57;;;13.30;71.20;;;;;;5072654;28;20032;-59
2021/05/15 04:13:01;;;;;;;16.60;7.68;;;13.40;71.30;;;;;;5072884;28;20123;-58
2021/05/15 04:18:12;;;;;;;13.77;6.93;;;13.30;71.30;;;;;;5059009;28;20093;-59
2021/05/15 04:20:39;;;;;;;;;;;13.30;71.40;;;;;;5073493;28;20021;-59
2021/05/15 04:23:06;;;;;;;13.77;7.10;;;13.30;71.30;;;;;;5072105;28;19916;-59
2021/05/15 04:25:32;;;;;;;17.63;6.80;;;13.30;71.10;;;;;;5072838;28;20396;-59
2021/05/15 04:27:58;;;;;;;18.40;7.82;;;13.30;71.40;;;;;;5072617;28;20113;-59
2021/05/15 04:30:25;;;;;;;12.00;6.88;;;13.20;71.50;;;;;;5072132;28;20096;-59
2021/05/15 04:32:51;;;;;;;21.40;7.35;;;13.30;71.70;;;;;;5072492;28;20043;-59
2021/05/15 04:35:17;;;;;;;16.00;7.85;;;13.30;71.80;;;;;;5072849;28;20021;-59
2021/05/15 04:37:42;;;;;;;14.80;7.50;;;13.30;71.90;;;;;;5071870;28;20040;-59
2021/05/15 04:40:09;;;;;;;12.93;7.43;;;13.30;72.00;;;;;;5058740;28;20040;-59
2021/05/15 04:42:37;;;;;;;12.85;8.10;;;13.30;72.10;;;;;;5072698;28;20028;-59
2021/05/15 04:45:09;;;;;;;12.43;7.45;;;13.30;72.20;;;;;;5071684;28;20029;-59
2021/05/15 04:47:35;;;;;;;14.98;7.45;;;13.30;72.10;;;;;;5072442;28;20044;-59
2021/05/15 04:50:01;;;;;;;12.63;7.18;;;13.30;72.20;;;;;;5071972;28;20066;-59
2021/05/15 04:52:27;;;;;;;14.50;8.25;;;13.30;72.40;;;;;;5072416;28;20033;-59
2021/05/15 04:54:53;;;;;;;19.85;8.02;;;13.30;72.40;;;;;;5072230;28;20471;-58
2021/05/15 04:57:18;;;;;;;14.82;7.20;;;13.30;72.40;;;;;;5071880;28;20032;-59
2021/05/15 04:59:44;;;;;;;13.68;7.63;;;13.30;72.40;;;;;;5065863;28;20095;-58
2021/05/15 05:02:10;;;;;;;17.52;7.65;;;13.30;72.40;;;;;;5064037;28;20457;-59
2021/05/15 05:04:36;;;;;;;12.55;7.38;;;13.30;72.50;;;;;;5071285;28;20077;-59
2021/05/15 05:07:03;;;;;;;13.98;7.55;;;13.30;72.50;;;;;;5071721;28;20031;-58
2021/05/15 05:09:28;;;;;;;11.73;6.90;;;13.30;72.50;;;;;;5065659;28;20391;-59
2021/05/15 05:11:57;;;;;;;17.92;8.13;;;13.40;72.60;;;;;;5060531;28;20016;-59
2021/05/15 05:14:23;;;;;;;14.75;7.85;;;13.30;72.60;;;;;;5072935;28;20048;-59
2021/05/15 05:16:50;;;;;;;15.85;7.85;;;13.30;72.60;;;;;;5071735;28;20013;-59
2021/05/15 05:19:16;;;;;;;14.55;7.53;;;13.40;72.50;;;;;;5073079;28;20040;-59
2021/05/15 05:21:42;;;;;;;17.08;8.10;;;13.30;72.50;;;;;;5075908;28;20021;-59
2021/05/15 05:24:08;;;;;;;15.85;7.80;;;13.40;72.80;;;;;;5068211;28;20476;-59
2021/05/15 05:26:38;;;;;;;17.35;8.18;;;13.30;72.80;;;;;;5074899;28;20027;-59
2021/05/15 05:29:09;;;;;;;16.92;8.10;;;13.30;72.80;;;;;;5075662;28;20032;-59
2021/05/15 05:31:40;;;;;;;15.52;9.27;;;13.30;73.00;;;;;;5072909;28;20525;-58
2021/05/15 05:34:07;;;;;;;16.88;7.97;;;13.30;73.00;;;;;;5074767;28;20039;-59
2021/05/15 05:36:33;;;;;;;16.02;7.50;;;13.40;73.10;;;;;;5075449;28;20487;-59
2021/05/15 05:39:00;;;;;;;14.52;8.27;;;13.40;73.10;;;;;;5074950;28;20032;-58
2021/05/15 05:41:26;;;;;;;17.55;7.43;;;13.40;73.30;;;;;;5074713;28;20360;-59
2021/05/15 05:43:52;;;;;;;20.55;9.18;;;13.40;73.30;;;;;;5072700;28;20029;-59
2021/05/15 05:46:19;;;;;;;17.60;8.85;;;13.50;73.30;;;;;;5065289;28;20029;-62
2021/05/15 05:48:45;;;;;;;17.48;8.65;;;13.40;73.40;;;;;;5070478;28;20404;-59
2021/05/15 05:51:10;;;;;;;16.33;9.38;;;13.50;73.50;;;;;;5072364;28;20119;-59
2021/05/15 05:53:36;;;;;;;16.67;8.88;;;13.40;73.50;;;;;;5068657;28;20036;-59
2021/05/15 05:56:03;;;;;;;17.73;8.88;;;13.50;73.70;;;;;;5055224;28;20083;-58
2021/05/15 05:58:29;;;;;;;13.98;8.15;;;13.50;73.80;;;;;;5065850;28;20550;-59
2021/05/15 06:00:55;;;;;;;16.20;8.50;;;13.50;73.60;;;;;;5070983;28;20033;-58
2021/05/15 06:03:20;;;;;;;16.50;8.63;;;13.50;73.50;;;;;;5073838;28;20127;-59
2021/05/15 06:05:46;;;;;;;15.90;8.90;;;13.50;73.70;;;;;;5075176;28;20066;-59
2021/05/15 06:08:12;;;;;;;18.48;9.07;;;13.60;74.00;;;;;;5074927;28;20055;-59
2021/05/15 06:10:38;;;;;;;20.83;10.13;;;13.60;74.00;;;;;;5074909;28;20383;-59
2021/05/15 06:13:05;;;;;;;19.00;8.35;;;13.60;74.20;;;;;;5075372;28;20383;-58
2021/05/15 06:15:31;;;;;;;15.23;7.20;;;13.60;74.40;;;;;;5074534;28;20029;-58
2021/05/15 06:17:57;;;;;;;18.95;8.90;;;13.60;74.40;;;;;;5074921;28;20078;-59
2021/05/15 06:20:23;;;;;;;17.35;8.20;;;13.70;74.50;;;;;;5075155;28;20415;-59
2021/05/15 06:22:49;;;;;;;20.92;9.88;;;13.60;74.60;;;;;;5074023;28;20467;-59
2021/05/15 06:25:15;;;;;;;20.15;8.95;;;13.60;74.80;;;;;;5074864;28;20148;-59
2021/05/15 06:27:41;;;;;;;16.05;7.57;;;13.70;75.70;;;;;;5074523;28;20499;-59
2021/05/15 06:30:07;;;;;;;14.82;7.88;;;13.60;75.20;;;;;;5071767;28;20029;-58
2021/05/15 06:32:33;;;;;;;14.75;8.07;;;13.70;75.10;;;;;;5059953;28;20037;-58
2021/05/15 06:34:59;;;;;;;16.38;8.43;;;13.70;75.00;;;;;;5065338;28;20116;-58
2021/05/15 06:37:24;;;;;;;18.02;8.63;;;13.70;74.90;;;;;;5063906;28;20442;-59
2021/05/15 06:39:50;;;;;;;14.18;8.00;;;13.70;75.00;;;;;;5073440;28;20400;-59
2021/05/15 06:42:16;;;;;;;14.98;6.40;;;13.70;74.80;;;;;;5068307;28;20467;-60
2021/05/15 06:44:42;;;;;;;16.02;7.78;;;13.70;74.70;;;;;;5073517;28;20032;-59
2021/05/15 06:47:14;;;;;;;18.80;8.80;;;13.70;74.60;;;;;;5070680;28;20047;-60
2021/05/15 06:49:40;;;;;;;12.38;7.20;;;13.80;74.60;;;;;;5067972;28;20033;-60
2021/05/15 06:52:10;;;;;;;16.05;7.82;;;13.80;74.40;;;;;;5072181;28;20380;-60
2021/05/15 06:54:35;;;;;;;16.33;8.60;;;13.80;74.50;;;;;;5072433;28;20034;-60
2021/05/15 06:57:03;;;;;;;13.20;8.32;;;13.90;74.50;;;;;;5072586;28;20115;-60
2021/05/15 06:59:29;;;;;;;13.40;7.38;;;13.90;74.50;;;;;;5073005;28;20044;-60
2021/05/15 07:01:54;;;;;;;14.02;6.47;;;14.00;74.30;;;;;;5068233;28;20098;-60
2021/05/15 07:04:20;;;;;;;16.65;6.90;;;14.00;74.00;;;;;;5064306;28;20040;-60
2021/05/15 07:06:48;;;;;;;13.40;6.28;;;14.10;73.90;;;;;;5073193;28;20024;-60
2021/05/15 07:09:13;;;;;;;17.63;8.15;;;14.10;73.70;;;;;;5071888;28;20024;-60
2021/05/15 07:11:39;;;;;;;21.08;7.90;;;14.20;73.60;;;;;;5062064;28;20399;-60
2021/05/15 07:14:05;;;;;;;13.02;6.78;;;14.20;73.40;;;;;;5073354;28;20039;-60
2021/05/15 07:16:31;;;;;;;15.15;7.88;;;14.30;73.30;;;;;;5067669;28;20024;-60
2021/05/15 07:18:56;;;;;;;19.52;8.25;;;14.30;73.40;;;;;;5042904;28;20400;-59
2021/05/15 07:21:22;;;;;;;13.23;7.40;;;14.30;73.10;;;;;;5066875;28;20031;-60
2021/05/15 07:23:48;;;;;;;13.43;7.13;;;14.30;72.90;;;;;;5063456;28;20037;-60
2021/05/15 07:26:13;;;;;;;13.75;7.20;;;14.30;72.70;;;;;;5062872;28;20020;-60
2021/05/15 07:28:39;;;;;;;12.80;7.90;;;14.40;72.70;;;;;;5065360;28;20036;-60
2021/05/15 07:31:05;;;;;;;14.38;7.60;;;14.40;72.60;;;;;;5062816;28;20039;-60
2021/05/15 07:33:32;;;;;;;16.27;8.07;;;14.40;72.60;;;;;;5072426;28;20071;-60
2021/05/15 07:35:57;;;;;;;16.40;7.82;;;14.50;72.50;;;;;;5071997;28;20082;-59
2021/05/15 07:38:24;;;;;;;17.20;7.85;;;14.50;72.40;;;;;;5068137;28;20036;-60
2021/05/15 07:40:50;;;;;;;19.90;9.15;;;14.50;72.30;;;;;;5080426;28;20048;-60
2021/05/15 07:43:23;;;;;;;17.08;8.57;;;14.50;72.10;;;;;;5061793;28;20039;-60
2021/05/15 07:45:53;;;;;;;18.45;9.48;;;14.60;72.20;;;;;;5052336;28;20037;-60
2021/05/15 07:48:28;;;;;;;15.30;8.73;;;14.60;72.40;;;;;;5054968;28;20025;-60
2021/05/15 07:51:05;;;;;;;15.95;7.13;;;14.60;72.30;;;;;;5054346;28;20067;-60
2021/05/15 07:53:30;;;;;;;13.70;7.55;;;14.60;72.50;;;;;;5054756;28;20683;-60
2021/05/15 07:55:56;;;;;;;15.88;8.02;;;14.70;72.50;;;;;;5053190;28;20029;-59
2021/05/15 07:58:22;;;;;;;17.90;8.52;;;14.70;72.30;;;;;;5054694;28;20400;-60
2021/05/15 08:00:48;;;;;;;21.38;8.52;;;14.70;72.30;;;;;;5055250;28;20033;-59
2021/05/15 08:03:13;;;;;;;16.42;8.00;;;14.70;72.30;;;;;;5052222;28;20051;-60
2021/05/15 08:05:39;;;;;;;14.93;8.77;;;14.70;72.10;;;;;;5053018;28;20025;-59
2021/05/15 08:08:06;;;;;;;13.65;8.05;;;14.70;72.00;;;;;;5054172;28;20035;-59
2021/05/15 08:10:32;;;;;;;14.00;6.80;;;14.70;71.90;;;;;;5052050;28;20479;-59
2021/05/15 08:12:59;;;;;;;13.38;7.28;;;14.70;72.00;;;;;;5054235;28;20025;-60
2021/05/15 08:15:26;;;;;;;17.30;7.97;;;14.80;72.10;;;;;;5053214;28;20357;-59
2021/05/15 08:17:52;;;;;;;17.50;8.57;;;14.80;71.90;;;;;;5055376;28;20056;-60
2021/05/15 08:20:19;;;;;;;18.92;8.75;;;14.80;72.00;;;;;;5052858;28;20526;-62
2021/05/15 08:22:45;;;;;;;15.95;7.10;;;14.80;71.80;;;;;;5055905;28;20054;-59
2021/05/15 08:25:12;;;;;;;14.98;6.75;;;14.80;72.00;;;;;;5067693;28;20021;-59
2021/05/15 08:27:39;;;;;;;12.93;6.72;;;14.80;72.00;;;;;;5068279;28;20059;-59
2021/05/15 08:30:14;;;;;;;15.65;7.63;;;14.90;72.20;;;;;;5067843;28;20094;-61
2021/05/15 08:32:39;;;;;;;16.92;9.23;;;14.90;72.10;;;;;;5064221;28;20027;-60
2021/05/15 08:35:06;;;;;;;16.95;8.68;;;14.90;72.20;;;;;;5072043;28;20107;-61
2021/05/15 08:37:31;;;;;;;15.68;8.73;;;15.00;72.20;;;;;;5059630;28;20067;-61
2021/05/15 08:40:00;;;;;;;13.20;7.68;;;14.90;72.10;;;;;;5071002;28;20012;-62
2021/05/15 08:42:28;;;;;;;18.30;8.98;;;14.90;72.10;;;;;;5059661;28;20472;-62
2021/05/15 08:44:54;;;;;;;13.25;5.82;;;15.00;72.20;;;;;;5055764;28;20468;-62
2021/05/15 08:47:20;;;;;;;14.95;7.25;;;15.10;72.40;;;;;;5072330;28;20024;-62
2021/05/15 08:49:47;;;;;;;17.77;9.82;;;15.00;72.50;;;;;;5062130;28;20044;-62
2021/05/15 08:52:14;;;;;;;19.85;9.07;;;15.00;72.30;;;;;;5059879;28;20044;-59
2021/05/15 08:54:40;;;;;;;16.88;8.35;;;15.00;72.30;;;;;;5069882;28;20032;-59
2021/05/15 08:57:07;;;;;;;16.55;9.25;;;15.10;72.30;;;;;;5070018;28;20099;-60
2021/05/15 08:59:58;;;;;;;15.70;9.07;;;15.10;72.10;;;;;;5070740;28;20064;-60
2021/05/15 09:02:24;;;;;;;17.52;9.25;;;15.10;72.10;;;;;;5073473;28;20032;-59
2021/05/15 09:04:49;;;;;;;15.68;7.28;;;15.10;71.90;;;;;;5075696;28;20081;-60
2021/05/15 09:07:15;;;;;;;17.27;8.95;;;15.10;72.00;;;;;;5075971;28;20028;-59
2021/05/15 09:09:41;;;;;;;14.50;9.07;;;15.10;72.00;;;;;;5071227;28;20479;-60
2021/05/15 09:12:09;;;;;;;14.57;8.07;;;15.10;71.80;;;;;;5065292;28;20060;-59
2021/05/15 09:14:35;;;;;;;21.17;9.68;;;15.10;71.70;;;;;;5069772;28;20028;-60
2021/05/15 09:17:01;;;;;;;18.63;9.80;;;15.10;71.50;;;;;;5066331;28;20033;-59
2021/05/15 09:19:28;;;;;;;22.52;9.55;;;15.10;71.40;;;;;;5060574;28;20476;-61
2021/05/15 09:22:05;;;;;;;17.83;9.52;;;15.10;71.40;;;;;;5070158;28;20036;-61
2021/05/15 09:24:37;;;;;;;19.52;8.95;;;15.10;71.60;;;;;;5065117;28;20379;-61
2021/05/15 09:27:08;;;;;;;17.48;9.43;;;15.10;71.40;;;;;;5065808;28;20464;-60
2021/05/15 09:29:45;;;;;;;19.02;9.70;;;15.20;71.60;;;;;;5072827;28;20494;-62
2021/05/15 09:32:15;;;;;;;17.45;8.88;;;15.20;71.70;;;;;;5056012;28;20059;-62
2021/05/15 09:34:48;;;;;;;18.05;10.52;;;15.20;72.00;;;;;;5069414;28;20051;-62
2021/05/15 09:37:32;;;;;;;;;;;15.30;72.00;;;;;;5068641;28;20036;-62
2021/05/15 09:40:19;;;;;;;17.42;8.35;;;15.20;72.00;;;;;;5067415;28;19954;-62
2021/05/15 09:42:57;;;;;;;19.80;11.07;;;15.30;71.90;;;;;;5072686;28;20048;-62
2021/05/15 09:45:27;;;;;;;20.52;9.57;;;15.30;71.80;;;;;;5061683;28;20029;-62
2021/05/15 09:47:58;;;;;;;14.93;8.00;;;15.30;72.10;;;;;;5064846;28;20025;-62
2021/05/15 09:50:26;;;;;;;19.75;10.10;;;15.40;72.20;;;;;;5066728;28;20028;-62
2021/05/15 09:53:17;;;;;;;16.70;10.65;;;15.40;72.00;;;;;;5064953;28;20060;-62
2021/05/15 09:55:44;;;;;;;21.40;10.10;;;15.40;71.80;;;;;;5062521;28;20399;-66
2021/05/15 09:58:11;;;;;;;22.58;10.88;;;15.40;72.10;;;;;;5073639;28;20041;-63
2021/05/15 10:00:43;;;;;;;19.42;10.45;;;15.40;72.50;;;;;;5072153;28;20020;-61
2021/05/15 10:03:21;;;;;;;22.02;11.82;;;15.40;72.10;;;;;;5065989;28;20025;-61
2021/05/15 10:06:07;;;;;;;25.25;11.35;;;15.50;71.90;;;;;;5056440;28;20037;-60
2021/05/15 10:08:39;;;;;;;29.45;12.35;;;15.50;71.80;;;;;;5055439;28;20033;-60
2021/05/15 10:11:08;;;;;;;25.60;11.60;;;15.60;71.80;;;;;;5056753;28;20469;-59
2021/05/15 10:13:35;;;;;;;25.83;11.38;;;15.60;71.70;;;;;;5063251;28;20138;-59
2021/05/15 10:16:01;;;;;;;26.73;11.45;;;15.60;72.40;;;;;;5073761;28;20031;-60
2021/05/15 10:18:34;;;;;;;26.60;12.10;;;15.60;71.90;;;;;;5073372;28;20079;-59
2021/05/15 10:21:02;;;;;;;24.85;11.82;;;15.60;71.90;;;;;;5070459;28;20103;-59
2021/05/15 10:23:28;;;;;;;25.48;12.95;;;15.60;71.70;;;;;;5073062;28;20037;-59
2021/05/15 10:26:10;;;;;;;27.30;13.07;;;15.70;71.90;;;;;;5072167;28;20021;-60
2021/05/15 10:28:37;;;;;;;30.00;13.95;;;15.60;71.90;;;;;;5072265;28;20094;-60
2021/05/15 10:31:08;;;;;;;30.67;12.80;;;15.70;71.80;;;;;;5072156;28;20028;-60
2021/05/15 10:33:39;;;;;;;27.48;14.10;;;15.70;71.80;;;;;;5073257;28;20029;-60
2021/05/15 10:36:06;;;;;;;29.25;12.45;;;15.70;71.80;;;;;;5071522;28;20078;-60
2021/05/15 10:38:37;;;;;;;29.73;13.45;;;15.80;71.90;;;;;;5073240;28;20047;-59
2021/05/15 10:41:20;;;;;;;29.73;14.10;;;15.80;71.70;;;;;;5072743;28;20388;-60
2021/05/15 10:43:48;;;;;;;25.50;10.35;;;15.80;71.80;;;;;;5061058;28;20084;-60
2021/05/15 10:46:25;;;;;;;22.92;11.48;;;15.80;71.80;;;;;;5071837;28;20494;-59
2021/05/15 10:49:09;;;;;;;26.67;13.95;;;15.80;71.60;;;;;;5072265;28;20399;-60
2021/05/15 10:51:36;;;;;;;;;;;15.90;71.50;;;;;;5072725;28;20024;-60
2021/05/15 10:54:03;;;;;;;31.25;15.02;;;15.90;72.00;;;;;;5073407;28;19908;-60
2021/05/15 10:56:30;;;;;;;21.67;10.63;;;15.90;71.70;;;;;;5072309;28;20128;-60
2021/05/15 10:59:10;;;;;;;30.67;16.60;;;15.90;71.90;;;;;;5063754;28;20064;-60
2021/05/15 11:01:46;;;;;;;33.13;16.25;;;15.90;71.80;;;;;;5072497;28;20020;-60
2021/05/15 11:04:20;;;;;;;36.05;16.40;;;16.00;71.90;;;;;;5072373;28;20051;-60
2021/05/15 11:06:56;;;;;;;28.90;14.00;;;16.00;71.90;;;;;;5058748;28;20029;-60
2021/05/15 11:09:24;;;;;;;33.45;17.10;;;16.00;72.20;;;;;;5058626;28;20074;-60
2021/05/15 11:11:50;;;;;;;40.28;17.33;;;16.10;72.20;;;;;;5065740;28;20041;-59
2021/05/15 11:14:29;;;;;;;37.05;18.20;;;16.10;72.10;;;;;;5058660;28;20016;-60
2021/05/15 11:17:08;;;;;;;34.75;17.95;;;16.10;72.00;;;;;;5071756;28;20111;-60
2021/05/15 11:19:35;;;;;;;30.85;14.40;;;16.20;71.70;;;;;;5061368;28;20028;-60
2021/05/15 11:22:01;;;;;;;28.02;15.32;;;16.20;71.60;;;;;;5072663;28;20025;-60
2021/05/15 11:24:36;;;;;;;32.75;15.35;;;16.30;71.90;;;;;;5072028;28;20044;-60
2021/05/15 11:27:17;;;;;;;39.88;18.98;;;16.30;71.80;;;;;;5065706;28;20031;-60
2021/05/15 11:29:43;;;;;;;31.88;14.85;;;16.30;71.70;;;;;;5058750;28;20395;-59
2021/05/15 11:32:11;;;;;;;36.28;17.80;;;16.30;71.70;;;;;;5052514;28;20021;-60
2021/05/15 11:34:38;;;;;;;33.70;15.13;;;16.30;71.80;;;;;;5060900;28;20070;-59
2021/05/15 11:37:04;;;;;;;30.40;16.30;;;16.40;71.80;;;;;;5050466;28;20079;-59
2021/05/15 11:39:30;;;;;;;32.28;17.15;;;16.40;72.00;;;;;;5050637;28;20040;-61
2021/05/15 11:42:13;;;;;;;31.60;17.52;;;16.40;71.80;;;;;;5059172;28;20438;-60
2021/05/15 11:44:41;;;;;;;44.80;20.00;;;16.40;71.60;;;;;;5054511;28;20040;-61
2021/05/15 11:47:09;;;;;;;39.92;18.88;;;16.40;71.80;;;;;;5052838;28;20104;-61
2021/05/15 11:49:37;;;;;;;34.80;17.00;;;16.40;71.80;;;;;;5050083;28;20503;-61
2021/05/15 11:52:08;;;;;;;32.78;17.00;;;16.50;71.70;;;;;;5051857;28;20048;-60
2021/05/15 11:54:35;;;;;;;34.35;16.80;;;16.50;71.70;;;;;;5054523;28;20028;-59
2021/05/15 11:57:02;;;;;;;29.20;15.13;;;16.50;71.60;;;;;;5054167;28;20091;-59
2021/05/15 11:59:30;;;;;;;34.63;18.02;;;16.50;72.80;;;;;;5052043;28;20155;-57
2021/05/15 12:01:58;;;;;;;31.90;16.77;;;16.50;72.20;;;;;;5053750;28;20499;-57
2021/05/15 12:04:27;;;;;;;36.28;19.52;;;16.60;72.00;;;;;;5052166;28;20029;-57
2021/05/15 12:06:55;;;;;;;33.85;14.88;;;16.50;71.90;;;;;;5051433;28;20396;-57
2021/05/15 12:09:21;;;;;;;30.92;16.70;;;16.60;72.00;;;;;;5055686;28;20487;-57
2021/05/15 12:11:47;;;;;;;34.60;15.65;;;16.60;72.30;;;;;;5055363;28;20033;-57
2021/05/15 12:14:16;;;;;;;32.25;16.23;;;16.60;72.30;;;;;;5053283;28;20062;-57
2021/05/15 12:16:42;;;;;;;37.58;18.77;;;16.60;72.30;;;;;;5050379;28;20025;-57
2021/05/15 12:19:22;;;;;;;20.75;10.82;;;16.50;72.10;;;;;;5053340;28;20048;-57
2021/05/15 12:22:01;;;;;;;28.98;15.93;;;16.50;72.50;;;;;;5053498;28;20480;-57
2021/05/15 12:24:41;;;;;;;31.90;14.85;;;16.60;72.70;;;;;;5052450;28;20032;-57
2021/05/15 12:27:09;;;;;;;34.72;16.35;;;16.50;73.00;;;;;;5052615;28;20476;-57
2021/05/15 12:29:38;;;;;;;27.98;15.18;;;16.50;72.90;;;;;;5051087;28;20017;-58
2021/05/15 12:32:05;;;;;;;27.88;15.45;;;16.60;73.40;;;;;;5053699;28;20052;-58
2021/05/15 12:34:31;;;;;;;29.17;14.88;;;16.50;73.40;;;;;;5052113;28;20046;-58
2021/05/15 12:36:57;;;;;;;24.77;12.18;;;16.50;73.60;;;;;;5056399;28;20067;-58
2021/05/15 12:39:36;;;;;;;35.45;16.63;;;16.50;73.80;;;;;;5069583;28;20052;-58
2021/05/15 12:42:02;;;;;;;23.95;13.23;;;16.50;73.40;;;;;;5065682;28;20024;-58